createdAt,value
2022-08-26T00:02:07.181Z,9.27
2022-08-26T00:04:35.773Z,10.40
2022-08-26T00:07:05.661Z,9.87
2022-08-26T00:09:33.370Z,9.33
2022-08-26T00:12:06.923Z,8.67
2022-08-26T00:14:34.247Z,9.63
2022-08-26T00:17:01.633Z,10.23
2022-08-26T00:19:28.983Z,8.83
2022-08-26T00:21:56.350Z,10.13
2022-08-26T00:24:25.520Z,8.53
2022-08-26T00:26:53.218Z,9.87
2022-08-26T00:29:21.439Z,9.50
2022-08-26T00:31:49.990Z,10.03
2022-08-26T00:34:19.619Z,8.07
2022-08-26T00:36:47.835Z,10.57
2022-08-26T00:39:20.152Z,8.43
2022-08-26T00:41:50.469Z,10.00
2022-08-26T00:44:19.564Z,10.07
2022-08-26T00:46:55.091Z,8.90
2022-08-26T00:49:35.893Z,10.57
2022-08-26T00:52:09.835Z,10.83
2022-08-26T00:54:46.898Z,10.77
2022-08-26T00:57:20.097Z,9.07
2022-08-26T00:59:54.931Z,9.47
2022-08-26T01:02:23.108Z,9.07
2022-08-26T01:04:55.734Z,10.80
2022-08-26T01:07:26.216Z,12.50
2022-08-26T01:09:55.632Z,10.60
2022-08-26T01:12:27.650Z,8.70
2022-08-26T01:14:56.142Z,10.23
2022-08-26T01:17:23.653Z,9.53
2022-08-26T01:20:00.745Z,9.03
2022-08-26T01:22:40.830Z,9.47
2022-08-26T01:25:08.952Z,9.93
2022-08-26T01:27:36.797Z,10.20
2022-08-26T01:30:07.385Z,11.20
2022-08-26T01:32:36.277Z,10.13
2022-08-26T01:35:08.745Z,8.73
2022-08-26T01:37:40.310Z,8.83
2022-08-26T01:40:16.916Z,10.33
2022-08-26T01:42:46.769Z,10.10
2022-08-26T01:45:19.838Z,9.37
2022-08-26T01:47:50.114Z,9.43
2022-08-26T01:50:30.145Z,10.80
2022-08-26T01:53:05.934Z,9.00
2022-08-26T01:55:36.672Z,12.87
2022-08-26T01:58:13.811Z,9.80
2022-08-26T02:00:41.299Z,10.70
2022-08-26T02:03:18.088Z,11.47
2022-08-26T02:05:48.802Z,11.50
2022-08-26T02:08:24.762Z,10.80
2022-08-26T02:10:54.781Z,10.23
2022-08-26T02:13:26.661Z,12.27
2022-08-26T02:15:56.108Z,12.27
2022-08-26T02:18:25.626Z,9.97
2022-08-26T02:20:55.310Z,9.50
2022-08-26T02:23:25.298Z,10.07
2022-08-26T02:26:02.446Z,9.53
2022-08-26T02:28:37.693Z,10.93
2022-08-26T02:31:05.525Z,9.67
2022-08-26T02:33:35.442Z,9.27
2022-08-26T02:36:04.096Z,9.90
2022-08-26T02:38:33.231Z,9.50
2022-08-26T02:41:00.822Z,10.43
2022-08-26T02:43:31.702Z,9.97
2022-08-26T02:46:02.333Z,9.90
2022-08-26T02:48:30.918Z,11.27
2022-08-26T02:51:00.672Z,9.80
2022-08-26T02:53:31.877Z,9.63
2022-08-26T02:56:00.916Z,9.70
2022-08-26T02:58:28.713Z,10.10
2022-08-26T03:00:56.059Z,10.43
2022-08-26T03:03:23.629Z,11.13
2022-08-26T03:05:51.559Z,12.73
2022-08-26T03:08:19.306Z,10.43
2022-08-26T03:10:47.641Z,12.70
2022-08-26T03:13:18.118Z,11.83
2022-08-26T03:15:47.556Z,11.50
2022-08-26T03:18:15.210Z,11.60
2022-08-26T03:20:42.554Z,10.93
2022-08-26T03:23:11.446Z,10.80
2022-08-26T03:25:40.135Z,13.00
2022-08-26T03:28:07.765Z,11.43
2022-08-26T03:30:45.459Z,13.37
2022-08-26T03:33:14.971Z,11.97
2022-08-26T03:35:45.509Z,11.40
2022-08-26T03:38:12.868Z,10.53
2022-08-26T03:40:42.452Z,11.00
2022-08-26T03:43:14.167Z,10.13
2022-08-26T03:45:43.592Z,11.27
2022-08-26T03:48:13.668Z,14.07
2022-08-26T03:50:42.172Z,12.23
2022-08-26T03:53:12.862Z,11.23
2022-08-26T03:55:41.528Z,12.53
2022-08-26T03:58:08.846Z,11.97
2022-08-26T04:00:36.674Z,10.30
2022-08-26T04:03:05.492Z,11.20
2022-08-26T04:05:38.016Z,11.23
2022-08-26T04:08:06.219Z,11.47
2022-08-26T04:10:33.547Z,10.80
2022-08-26T04:13:00.796Z,10.97
2022-08-26T04:15:28.659Z,14.40
2022-08-26T04:17:57.344Z,11.40
2022-08-26T04:20:26.984Z,12.67
2022-08-26T04:22:54.350Z,15.67
2022-08-26T04:25:22.543Z,11.40
2022-08-26T04:27:51.731Z,11.63
2022-08-26T04:30:20.075Z,12.60
2022-08-26T04:32:48.990Z,11.50
2022-08-26T04:35:16.774Z,13.17
2022-08-26T04:37:45.678Z,11.80
2022-08-26T04:40:13.323Z,15.40
2022-08-26T04:42:40.727Z,12.37
2022-08-26T04:45:10.382Z,11.63
2022-08-26T04:47:39.065Z,12.77
2022-08-26T04:50:08.723Z,11.93
2022-08-26T04:52:38.537Z,14.27
2022-08-26T04:55:08.762Z,13.03
2022-08-26T04:57:36.334Z,11.97
2022-08-26T05:00:06.542Z,28.40
2022-08-26T05:02:34.411Z,19.93
2022-08-26T05:05:01.991Z,21.73
2022-08-26T05:07:30.239Z,12.00
2022-08-26T05:09:59.223Z,12.50
2022-08-26T05:12:28.759Z,12.13
2022-08-26T05:14:56.419Z,12.60
2022-08-26T05:17:24.787Z,15.13
2022-08-26T05:19:52.071Z,15.13
2022-08-26T05:22:20.239Z,13.80
2022-08-26T05:24:47.793Z,11.97
2022-08-26T05:27:15.168Z,11.63
2022-08-26T05:29:44.354Z,14.83
2022-08-26T05:32:11.754Z,13.23
2022-08-26T05:34:39.166Z,13.43
2022-08-26T05:37:06.735Z,12.57
2022-08-26T05:39:34.123Z,12.97
2022-08-26T05:42:02.314Z,15.80
2022-08-26T05:44:29.607Z,29.80
2022-08-26T05:47:18.246Z,21.67
2022-08-26T05:49:51.380Z,18.27
2022-08-26T05:52:19.059Z,14.47
2022-08-26T05:54:46.519Z,14.97
2022-08-26T05:57:17.120Z,14.50
2022-08-26T05:59:46.741Z,13.10
2022-08-26T06:02:14.102Z,13.40
2022-08-26T06:04:43.369Z,15.73
2022-08-26T06:07:11.550Z,13.37
2022-08-26T06:09:41.447Z,13.47
2022-08-26T06:12:09.495Z,16.33
2022-08-26T06:14:37.027Z,13.37
2022-08-26T06:17:04.579Z,17.10
2022-08-26T06:19:33.136Z,17.90
2022-08-26T06:22:23.691Z,14.97
2022-08-26T06:25:09.881Z,19.10
2022-08-26T06:27:37.471Z,13.80
2022-08-26T06:30:06.459Z,14.07
2022-08-26T06:32:33.872Z,13.20
2022-08-26T06:35:01.557Z,18.73
2022-08-26T06:37:30.660Z,15.63
2022-08-26T06:39:58.168Z,15.67
2022-08-26T06:42:25.892Z,15.03
2022-08-26T06:44:54.256Z,13.90
2022-08-26T06:47:21.688Z,13.50
2022-08-26T06:49:50.381Z,29.87
2022-08-26T06:52:23.079Z,37.20
2022-08-26T06:54:53.505Z,21.67
2022-08-26T06:57:20.884Z,16.13
2022-08-26T06:59:48.776Z,18.60
2022-08-26T07:02:18.757Z,20.10
2022-08-26T07:04:47.910Z,15.17
2022-08-26T07:07:15.970Z,16.50
2022-08-26T07:09:43.464Z,19.60
2022-08-26T07:12:12.219Z,15.63
2022-08-26T07:14:40.702Z,16.23
2022-08-26T07:17:14.629Z,15.37
2022-08-26T07:19:43.163Z,14.63
2022-08-26T07:22:10.965Z,12.60
2022-08-26T07:24:42.369Z,12.53
2022-08-26T07:27:33.447Z,12.00
2022-08-26T07:30:01.089Z,17.93
2022-08-26T07:32:32.669Z,17.60
2022-08-26T07:35:00.686Z,14.90
2022-08-26T07:37:28.422Z,12.23
2022-08-26T07:40:04.598Z,12.90
2022-08-26T07:42:34.376Z,14.23
2022-08-26T07:45:02.182Z,14.70
2022-08-26T07:47:29.710Z,15.77
2022-08-26T07:49:59.090Z,13.77
2022-08-26T07:52:29.888Z,12.37
2022-08-26T07:55:00.326Z,13.63
2022-08-26T07:57:29.460Z,14.43
2022-08-26T07:59:59.595Z,15.18
2022-08-26T08:02:29.579Z,10.98
2022-08-26T08:04:58.435Z,14.88
2022-08-26T08:07:45.136Z,13.00
2022-08-26T08:10:17.384Z,12.48
2022-08-26T08:12:44.989Z,13.38
2022-08-26T08:15:15.415Z,12.35
2022-08-26T08:17:47.002Z,12.32
2022-08-26T08:20:18.880Z,11.95
2022-08-26T08:22:46.811Z,12.00
2022-08-26T08:25:14.733Z,16.60
2022-08-26T08:27:48.712Z,13.38
2022-08-26T08:30:22.874Z,11.98
2022-08-26T08:32:50.831Z,10.48
2022-08-26T08:35:22.427Z,14.18
2022-08-26T08:37:54.841Z,10.35
2022-08-26T08:40:26.047Z,11.75
2022-08-26T08:43:01.486Z,8.52
2022-08-26T08:45:37.235Z,15.93
2022-08-26T08:48:13.761Z,12.60
2022-08-26T08:50:46.013Z,14.10
2022-08-26T08:53:18.737Z,9.13
2022-08-26T08:56:02.914Z,12.10
2022-08-26T08:58:51.602Z,10.85
2022-08-26T09:01:33.593Z,11.55
2022-08-26T09:04:24.141Z,12.32
2022-08-26T09:09:37.741Z,12.88
2022-08-26T09:12:12.858Z,10.05
2022-08-26T09:14:45.039Z,12.27
2022-08-26T09:17:31.281Z,7.97
2022-08-26T09:20:12.160Z,8.48
2022-08-26T09:22:41.021Z,8.63
2022-08-26T09:25:14.743Z,10.32
2022-08-26T09:27:46.396Z,8.63
2022-08-26T09:30:26.445Z,10.88
2022-08-26T09:33:10.223Z,8.63
2022-08-26T09:35:42.945Z,8.63
2022-08-26T09:38:26.944Z,12.85
2022-08-26T09:40:59.423Z,12.10
2022-08-26T09:43:29.016Z,10.95
2022-08-26T09:46:18.377Z,9.35
2022-08-26T09:48:47.402Z,12.40
2022-08-26T09:51:31.590Z,14.68
2022-08-26T09:54:02.410Z,8.05
2022-08-26T09:56:32.897Z,8.15
2022-08-26T09:59:02.234Z,8.93
2022-08-26T10:01:36.635Z,11.68
2022-08-26T10:04:12.286Z,11.52
2022-08-26T10:06:55.545Z,15.00
2022-08-26T10:09:25.708Z,11.15
2022-08-26T10:11:58.712Z,11.93
2022-08-26T10:14:33.472Z,11.15
2022-08-26T10:17:09.224Z,11.32
2022-08-26T10:19:56.509Z,9.35
2022-08-26T10:22:35.264Z,13.40
2022-08-26T10:25:11.932Z,9.77
2022-08-26T10:27:51.331Z,15.05
2022-08-26T10:30:33.727Z,10.68
2022-08-26T10:33:06.531Z,12.45
2022-08-26T10:35:44.844Z,11.02
2022-08-26T10:38:18.549Z,11.80
2022-08-26T10:40:56.174Z,8.98
2022-08-26T10:43:29.744Z,11.55
2022-08-26T10:46:04.871Z,10.15
2022-08-26T10:48:46.381Z,14.25
2022-08-26T10:51:20.799Z,12.60
2022-08-26T10:53:58.945Z,12.57
2022-08-26T10:56:49.401Z,10.55
2022-08-26T10:59:28.932Z,9.13
2022-08-26T11:02:07.103Z,14.07
2022-08-26T11:04:53.250Z,11.02
2022-08-26T11:07:44.022Z,12.82
2022-08-26T11:11:04.512Z,14.40
2022-08-26T11:14:01.190Z,11.85
2022-08-26T11:16:43.531Z,12.10
2022-08-26T11:20:00.738Z,12.00
2022-08-26T11:22:32.723Z,11.15
2022-08-26T11:25:09.457Z,13.43
2022-08-26T11:28:04.436Z,12.90
2022-08-26T11:30:57.021Z,10.77
2022-08-26T11:33:57.929Z,11.25
2022-08-26T11:36:54.358Z,9.48
2022-08-26T11:39:31.863Z,10.23
2022-08-26T11:42:23.379Z,9.88
2022-08-26T11:44:50.879Z,12.52
2022-08-26T11:47:28.834Z,11.40
2022-08-26T11:50:17.602Z,14.30
2022-08-26T11:53:04.331Z,9.25
2022-08-26T11:55:41.887Z,18.60
2022-08-26T11:58:14.947Z,11.13
2022-08-26T12:00:54.432Z,10.77
2022-08-26T12:03:30.580Z,9.93
2022-08-26T12:05:59.522Z,11.38
2022-08-26T12:08:32.885Z,14.65
2022-08-26T12:11:06.944Z,10.02
2022-08-26T12:13:39.000Z,13.27
2022-08-26T12:16:07.634Z,9.68
2022-08-26T12:18:38.661Z,13.45
2022-08-26T12:21:19.042Z,12.52
2022-08-26T12:23:49.943Z,10.57
2022-08-26T12:26:26.204Z,16.25
2022-08-26T12:29:00.966Z,16.02
2022-08-26T12:31:35.514Z,10.68
2022-08-26T12:34:06.059Z,11.48
2022-08-26T12:37:01.030Z,12.90
2022-08-26T12:39:33.239Z,16.13
2022-08-26T12:42:04.152Z,16.65
2022-08-26T12:44:54.159Z,13.98
2022-08-26T12:47:35.117Z,16.00
2022-08-26T12:50:18.757Z,16.00
2022-08-26T12:53:01.557Z,15.63
2022-08-26T12:55:45.478Z,14.45
2022-08-26T12:58:28.225Z,15.45
2022-08-26T13:01:18.596Z,11.68
2022-08-26T13:03:46.975Z,14.30
2022-08-26T13:06:29.691Z,18.70
2022-08-26T13:09:00.454Z,13.87
2022-08-26T13:11:31.874Z,11.47
2022-08-26T13:14:02.394Z,11.13
2022-08-26T13:16:36.756Z,10.77
2022-08-26T13:19:10.154Z,11.57
2022-08-26T13:21:45.022Z,11.47
2022-08-26T13:24:16.915Z,11.50
2022-08-26T13:26:49.091Z,10.23
2022-08-26T13:29:18.295Z,8.93
2022-08-26T13:31:48.003Z,9.30
2022-08-26T13:34:19.531Z,11.03
2022-08-26T13:36:47.829Z,10.60
2022-08-26T13:39:15.528Z,15.37
2022-08-26T13:41:43.399Z,13.27
2022-08-26T13:44:11.311Z,15.87
2022-08-26T13:46:40.089Z,21.70
2022-08-26T13:49:09.359Z,17.07
2022-08-26T13:51:37.900Z,19.00
2022-08-26T13:54:06.382Z,16.80
2022-08-26T13:56:35.525Z,18.37
2022-08-26T13:59:03.787Z,17.53
2022-08-26T14:01:32.479Z,16.80
2022-08-26T14:04:00.247Z,12.83
2022-08-26T14:06:29.305Z,9.90
2022-08-26T14:08:56.925Z,9.93
2022-08-26T14:11:25.080Z,8.27
2022-08-26T14:13:52.674Z,9.10
2022-08-26T14:16:26.205Z,9.53
2022-08-26T14:18:54.092Z,9.03
2022-08-26T14:21:22.057Z,8.83
2022-08-26T14:23:50.826Z,7.13
2022-08-26T14:26:28.352Z,6.47
2022-08-26T14:28:57.700Z,7.00
2022-08-26T14:31:27.032Z,6.23
2022-08-26T14:33:57.643Z,6.80
2022-08-26T14:36:34.085Z,7.43
2022-08-26T14:39:06.528Z,7.70
2022-08-26T14:41:39.357Z,8.83
2022-08-26T14:44:11.703Z,9.87
2022-08-26T14:46:45.825Z,11.63
2022-08-26T14:49:14.678Z,10.13
2022-08-26T14:51:42.222Z,19.10
2022-08-26T14:54:13.402Z,17.60
2022-08-26T14:56:47.185Z,19.97
2022-08-26T14:59:18.885Z,22.33
2022-08-26T15:01:46.809Z,23.50
2022-08-26T15:04:14.833Z,17.87
2022-08-26T15:06:42.511Z,20.63
2022-08-26T15:09:11.593Z,25.73
2022-08-26T15:11:39.339Z,20.20
2022-08-26T15:14:07.395Z,17.93
2022-08-26T15:16:35.523Z,21.40
2022-08-26T15:19:06.685Z,23.73
2022-08-26T15:21:36.363Z,23.90
2022-08-26T15:24:05.290Z,19.50
2022-08-26T15:26:34.834Z,21.37
2022-08-26T15:29:05.059Z,15.13
2022-08-26T15:31:34.340Z,16.70
2022-08-26T15:34:06.140Z,15.87
2022-08-26T15:36:37.223Z,19.50
2022-08-26T15:39:07.290Z,16.40
2022-08-26T15:41:37.179Z,15.33
2022-08-26T15:44:06.737Z,17.83
2022-08-26T15:46:35.624Z,16.03
2022-08-26T15:49:05.180Z,16.37
2022-08-26T15:51:45.323Z,16.83
2022-08-26T15:54:14.433Z,22.83
2022-08-26T15:56:43.728Z,22.73
2022-08-26T15:59:11.895Z,19.93
2022-08-26T16:01:39.820Z,19.47
2022-08-26T16:04:07.592Z,19.10
2022-08-26T16:06:38.388Z,16.20
2022-08-26T16:09:07.584Z,18.43
2022-08-26T16:11:38.905Z,22.27
2022-08-26T16:14:08.387Z,18.23
2022-08-26T16:16:39.346Z,20.83
2022-08-26T16:19:07.826Z,17.17
2022-08-26T16:21:36.007Z,18.63
2022-08-26T16:24:05.583Z,19.43
2022-08-26T16:26:37.178Z,22.33
2022-08-26T16:29:09.902Z,20.20
2022-08-26T16:31:38.416Z,23.43
2022-08-26T16:34:07.048Z,18.93
2022-08-26T16:36:35.950Z,18.37
2022-08-26T16:39:05.491Z,18.47
2022-08-26T16:41:33.761Z,16.93
2022-08-26T16:44:01.132Z,18.63
2022-08-26T16:46:30.276Z,17.63
2022-08-26T16:48:59.259Z,14.87
2022-08-26T16:51:28.176Z,15.00
2022-08-26T16:53:59.205Z,14.80
2022-08-26T16:56:33.576Z,14.40
2022-08-26T16:59:04.170Z,10.00
2022-08-26T17:01:33.032Z,15.03
2022-08-26T17:04:00.605Z,13.93
2022-08-26T17:06:28.114Z,10.80
2022-08-26T17:08:55.574Z,11.37
2022-08-26T17:11:23.125Z,8.93
2022-08-26T17:13:50.584Z,10.00
2022-08-26T17:16:18.018Z,11.23
2022-08-26T17:18:47.358Z,9.80
2022-08-26T17:21:15.265Z,8.17
2022-08-26T17:23:43.792Z,9.13
2022-08-26T17:26:12.748Z,8.70
2022-08-26T17:28:40.875Z,7.30
2022-08-26T17:31:10.070Z,7.73
2022-08-26T17:33:38.067Z,5.67
2022-08-26T17:36:10.154Z,9.80
2022-08-26T17:38:38.800Z,6.83
2022-08-26T17:41:08.591Z,7.00
2022-08-26T17:43:36.472Z,8.07
2022-08-26T17:46:08.067Z,6.57
2022-08-26T17:48:36.719Z,9.53
2022-08-26T17:51:09.595Z,5.87
2022-08-26T17:53:37.331Z,5.10
2022-08-26T17:56:08.152Z,6.77
2022-08-26T17:58:36.714Z,6.80
2022-08-26T18:01:06.112Z,8.13
2022-08-26T18:03:33.874Z,7.07
2022-08-26T18:06:02.087Z,8.63
2022-08-26T18:08:30.801Z,6.93
2022-08-26T18:10:59.021Z,7.50
2022-08-26T18:13:26.382Z,5.93
2022-08-26T18:15:53.877Z,8.07
2022-08-26T18:18:21.329Z,6.97
2022-08-26T18:20:51.805Z,5.17
2022-08-26T18:23:21.470Z,5.53
2022-08-26T18:25:50.442Z,4.63
2022-08-26T18:28:17.972Z,7.27
2022-08-26T18:30:45.891Z,5.57
2022-08-26T18:33:14.873Z,6.03
2022-08-26T18:35:44.433Z,4.83
2022-08-26T18:38:13.923Z,4.13
2022-08-26T18:40:45.104Z,5.47
2022-08-26T18:43:13.798Z,3.47
2022-08-26T18:45:41.271Z,4.60
2022-08-26T18:48:09.039Z,3.97
2022-08-26T18:50:39.783Z,4.50
2022-08-26T18:53:07.570Z,6.90
2022-08-26T18:55:34.971Z,5.40
2022-08-26T18:58:02.412Z,6.17
2022-08-26T19:00:31.594Z,7.80
2022-08-26T19:02:59.000Z,6.77
2022-08-26T19:05:28.205Z,6.33
2022-08-26T19:07:56.559Z,8.27
2022-08-26T19:10:24.829Z,6.43
2022-08-26T19:12:53.182Z,5.07
2022-08-26T19:15:21.930Z,7.23
2022-08-26T19:17:50.665Z,7.07
2022-08-26T19:20:18.285Z,5.47
2022-08-26T19:22:45.980Z,7.40
2022-08-26T19:25:14.091Z,5.43
2022-08-26T19:27:41.521Z,8.17
2022-08-26T19:30:10.374Z,7.83
2022-08-26T19:32:38.283Z,9.93
2022-08-26T19:35:09.037Z,7.30
2022-08-26T19:37:36.413Z,7.10
2022-08-26T19:40:05.015Z,7.20
2022-08-26T19:42:32.440Z,8.80
2022-08-26T19:45:24.548Z,7.47
2022-08-26T19:47:53.542Z,8.37
2022-08-26T19:50:23.120Z,7.20
2022-08-26T19:52:50.526Z,5.07
2022-08-26T19:55:20.707Z,5.37
2022-08-26T19:57:48.550Z,6.77
2022-08-26T20:00:20.520Z,7.83
2022-08-26T20:02:48.767Z,8.03
2022-08-26T20:05:20.395Z,5.93
2022-08-26T20:07:50.474Z,5.77
2022-08-26T20:10:21.673Z,8.13
2022-08-26T20:12:51.905Z,6.50
2022-08-26T20:15:22.154Z,4.97
2022-08-26T20:17:50.014Z,8.00
2022-08-26T20:20:36.101Z,6.13
2022-08-26T20:23:05.241Z,7.33
2022-08-26T20:25:33.378Z,6.83
2022-08-26T20:28:01.442Z,6.73
2022-08-26T20:30:29.007Z,9.00
2022-08-26T20:32:57.079Z,7.87
2022-08-26T20:35:24.541Z,6.63
2022-08-26T20:37:51.917Z,6.50
2022-08-26T20:40:22.195Z,7.13
2022-08-26T20:42:49.651Z,8.10
2022-08-26T20:45:17.101Z,6.80
2022-08-26T20:47:44.560Z,6.50
2022-08-26T20:50:11.920Z,10.07
2022-08-26T20:52:39.352Z,9.93
2022-08-26T20:55:07.914Z,8.47
2022-08-26T20:57:37.416Z,7.30
2022-08-26T21:00:06.651Z,9.17
2022-08-26T21:02:34.661Z,7.37
2022-08-26T21:05:02.106Z,7.77
2022-08-26T21:07:30.344Z,7.40
2022-08-26T21:09:58.130Z,6.90
2022-08-26T21:12:27.091Z,7.50
2022-08-26T21:14:55.995Z,10.43
2022-08-26T21:17:23.433Z,5.13
2022-08-26T21:19:51.203Z,6.60
2022-08-26T21:22:18.940Z,5.67
2022-08-26T21:24:46.863Z,7.57
2022-08-26T21:27:14.506Z,9.17
2022-08-26T21:29:48.683Z,5.27
2022-08-26T21:32:20.956Z,9.93
2022-08-26T21:34:48.386Z,8.83
2022-08-26T21:37:16.980Z,8.03
2022-08-26T21:39:44.720Z,6.10
2022-08-26T21:42:12.112Z,9.40
2022-08-26T21:44:39.489Z,9.13
2022-08-26T21:47:07.200Z,6.77
2022-08-26T21:49:36.073Z,8.53
2022-08-26T21:52:04.719Z,7.93
2022-08-26T21:54:32.469Z,8.73
2022-08-26T21:56:59.935Z,7.63
2022-08-26T21:59:27.388Z,6.57
2022-08-26T22:01:54.923Z,8.23
2022-08-26T22:04:22.450Z,6.83
2022-08-26T22:06:54.352Z,6.67
2022-08-26T22:09:26.595Z,7.33
2022-08-26T22:11:56.856Z,8.90
2022-08-26T22:14:30.436Z,7.27
2022-08-26T22:16:59.335Z,6.40
2022-08-26T22:19:27.020Z,6.30
2022-08-26T22:21:56.241Z,11.00
2022-08-26T22:24:27.161Z,6.30
2022-08-26T22:26:55.597Z,9.73
2022-08-26T22:29:25.106Z,6.40
2022-08-26T22:31:53.333Z,6.70
2022-08-26T22:34:23.140Z,7.20
2022-08-26T22:36:50.836Z,8.63
2022-08-26T22:39:22.883Z,6.83
2022-08-26T22:41:51.146Z,6.57
2022-08-26T22:44:22.207Z,9.60
2022-08-26T22:46:54.297Z,6.83
2022-08-26T22:49:22.048Z,8.53
2022-08-26T22:51:51.001Z,7.17
2022-08-26T22:54:20.243Z,5.57
2022-08-26T22:56:47.970Z,3.73
2022-08-26T22:59:16.278Z,7.20
2022-08-26T23:01:46.578Z,6.07
2022-08-26T23:04:15.192Z,5.77
2022-08-26T23:06:47.591Z,4.67
2022-08-26T23:09:18.354Z,6.67
2022-08-26T23:11:48.832Z,8.07
2022-08-26T23:14:18.284Z,6.20
2022-08-26T23:16:45.899Z,4.97
2022-08-26T23:19:16.414Z,7.17
2022-08-26T23:21:44.045Z,7.77
2022-08-26T23:24:12.341Z,4.63
2022-08-26T23:26:42.818Z,7.17
2022-08-26T23:29:15.607Z,5.67
2022-08-26T23:31:43.723Z,5.23
2022-08-26T23:34:30.449Z,4.33
2022-08-26T23:36:59.009Z,4.10
2022-08-26T23:39:27.708Z,7.37
2022-08-26T23:41:55.152Z,3.20
2022-08-26T23:44:25.923Z,5.00
2022-08-26T23:46:53.797Z,6.73
2022-08-26T23:49:21.223Z,7.23
2022-08-26T23:52:07.133Z,4.83
2022-08-26T23:54:34.916Z,7.87
2022-08-26T23:57:02.353Z,3.77
2022-08-26T23:59:31.355Z,4.67
